Time;durP1;ratioP1;P1;durP2;ratioP2;P2;SDS_P1;SDS_P2;PMS_P1;PMS_P2;Temp;Humidity;BMP_temperature;BMP_pressure;BME280_temperature;BME280_humidity;BME280_pressure;Samples;Min_cycle;Max_cycle;Signal;HPM_P1;HPM_P2
2021/08/29 00:00:37;;;;;;;0.75;0.75;;;23.60;43.50;;;;;;5025853;28;20205;-50
2021/08/29 00:03:03;;;;;;;2.85;1.20;;;23.60;43.50;;;;;;5030526;28;20202;-52
2021/08/29 00:05:30;;;;;;;1.20;1.10;;;23.60;43.50;;;;;;5027677;28;20198;-52
2021/08/29 00:07:56;;;;;;;1.23;1.02;;;23.50;43.30;;;;;;5029377;28;20705;-48
2021/08/29 00:10:23;;;;;;;1.50;0.95;;;23.60;43.50;;;;;;5028255;28;20195;-51
2021/08/29 00:12:50;;;;;;;0.88;0.88;;;23.60;43.50;;;;;;5030308;28;20210;-53
2021/08/29 00:15:16;;;;;;;0.90;0.90;;;23.60;43.50;;;;;;5027607;28;20206;-53
2021/08/29 00:17:43;;;;;;;1.02;0.98;;;23.50;43.30;;;;;;5029839;28;20221;-50
2021/08/29 00:20:09;;;;;;;0.80;0.80;;;23.50;43.30;;;;;;5016834;28;20311;-53
2021/08/29 00:22:36;;;;;;;1.00;1.00;;;23.60;43.40;;;;;;5028867;28;20298;-53
2021/08/29 00:25:02;;;;;;;1.63;1.45;;;23.60;43.40;;;;;;5029501;28;20202;-51
2021/08/29 00:27:29;;;;;;;0.80;0.80;;;23.60;43.40;;;;;;5032311;28;20218;-57
2021/08/29 00:29:55;;;;;;;0.88;0.88;;;23.50;43.30;;;;;;5032540;28;20320;-53
2021/08/29 00:32:22;;;;;;;1.65;0.98;;;23.60;43.40;;;;;;5033813;28;20201;-53
2021/08/29 00:34:48;;;;;;;1.02;1.02;;;23.50;43.30;;;;;;5017960;28;20219;-52
2021/08/29 00:37:14;;;;;;;0.90;0.90;;;23.50;43.30;;;;;;5056139;22;20737;-53
2021/08/29 00:39:41;;;;;;;1.25;0.80;;;23.60;43.40;;;;;;5052793;28;20672;-52
2021/08/29 00:42:07;;;;;;;0.88;0.88;;;23.50;43.30;;;;;;5056791;28;20205;-54
2021/08/29 00:44:34;;;;;;;1.38;0.90;;;23.60;43.40;;;;;;5062315;28;20205;-53
2021/08/29 00:47:00;;;;;;;1.60;1.00;;;23.60;43.40;;;;;;5052894;28;20217;-53
2021/08/29 00:49:27;;;;;;;0.88;0.85;;;23.60;43.40;;;;;;5049672;28;20233;-56
2021/08/29 00:51:53;;;;;;;1.13;0.95;;;23.60;43.40;;;;;;5031242;28;20285;-55
2021/08/29 00:54:19;;;;;;;1.08;0.95;;;23.60;43.40;;;;;;5042675;28;20573;-54
2021/08/29 00:56:46;;;;;;;1.25;1.05;;;23.60;43.30;;;;;;5038861;28;20216;-55
2021/08/29 00:59:12;;;;;;;0.77;0.77;;;23.60;43.30;;;;;;5041794;28;20202;-54
2021/08/29 01:01:39;;;;;;;0.98;0.82;;;23.60;43.30;;;;;;5041647;28;20204;-53
2021/08/29 01:04:05;;;;;;;0.80;0.80;;;23.60;43.30;;;;;;5034183;28;20198;-53
2021/08/29 01:06:32;;;;;;;1.50;0.90;;;23.50;43.20;;;;;;5035187;28;20218;-56
2021/08/29 01:08:58;;;;;;;1.00;0.90;;;23.50;43.20;;;;;;5053064;28;20266;-52
2021/08/29 01:11:25;;;;;;;1.08;1.00;;;23.50;43.20;;;;;;5043357;28;20220;-54
2021/08/29 01:13:51;;;;;;;1.20;1.00;;;23.60;43.30;;;;;;5053557;28;20229;-55
2021/08/29 01:16:18;;;;;;;1.17;0.90;;;23.50;43.30;;;;;;5036561;28;20230;-54
2021/08/29 01:18:44;;;;;;;0.90;0.90;;;23.60;43.30;;;;;;5034490;28;20206;-55
2021/08/29 01:21:11;;;;;;;0.93;0.90;;;23.50;43.20;;;;;;5044048;28;20255;-53
2021/08/29 01:23:37;;;;;;;1.10;1.00;;;23.50;43.20;;;;;;5047682;28;20206;-58
2021/08/29 01:26:04;;;;;;;0.90;0.90;;;23.50;43.20;;;;;;5037885;28;20223;-60
2021/08/29 01:28:30;;;;;;;0.80;0.80;;;23.50;43.20;;;;;;5033173;28;20776;-61
2021/08/29 01:30:56;;;;;;;1.05;0.80;;;23.50;43.20;;;;;;5039721;28;20723;-54
2021/08/29 01:33:23;;;;;;;0.77;0.77;;;23.50;43.20;;;;;;5047593;28;21717;-53
2021/08/29 01:35:49;;;;;;;1.30;0.90;;;23.50;43.20;;;;;;5033817;28;20219;-51
2021/08/29 01:38:16;;;;;;;1.27;0.90;;;23.50;43.20;;;;;;5038998;28;20223;-53
2021/08/29 01:40:42;;;;;;;1.23;0.93;;;23.60;43.30;;;;;;5048288;28;20203;-53
2021/08/29 01:43:09;;;;;;;0.70;0.70;;;23.50;43.20;;;;;;5038180;28;20204;-53
2021/08/29 01:45:35;;;;;;;0.90;0.90;;;23.50;43.20;;;;;;5044868;28;20225;-56
2021/08/29 01:48:02;;;;;;;0.80;0.80;;;23.50;43.20;;;;;;5030517;28;20195;-55
2021/08/29 01:50:28;;;;;;;1.08;0.85;;;23.50;43.20;;;;;;5048761;28;20198;-57
2021/08/29 01:52:55;;;;;;;0.95;0.80;;;23.50;43.20;;;;;;5033185;28;20210;-49
2021/08/29 01:55:21;;;;;;;0.90;0.90;;;23.50;43.20;;;;;;5047591;28;20201;-57
2021/08/29 01:57:47;;;;;;;0.80;0.80;;;23.50;43.20;;;;;;5049530;28;20202;-53
2021/08/29 02:00:14;;;;;;;1.00;0.90;;;23.50;43.20;;;;;;5036262;28;20237;-51
2021/08/29 02:02:40;;;;;;;1.10;1.02;;;23.50;43.20;;;;;;5052446;28;20564;-51
2021/08/29 02:05:07;;;;;;;0.73;0.73;;;23.50;43.20;;;;;;5041039;28;20668;-54
2021/08/29 02:07:33;;;;;;;0.70;0.70;;;23.50;43.20;;;;;;5051181;28;20588;-52
2021/08/29 02:10:00;;;;;;;0.77;0.77;;;23.50;43.20;;;;;;5034398;28;20706;-50
2021/08/29 02:12:26;;;;;;;0.88;0.80;;;23.50;43.20;;;;;;5039950;28;20206;-53
2021/08/29 02:14:53;;;;;;;0.80;0.80;;;23.50;43.20;;;;;;5038629;28;20206;-56
2021/08/29 02:17:19;;;;;;;1.55;1.08;;;23.50;43.20;;;;;;5045840;28;20224;-55
2021/08/29 02:19:46;;;;;;;0.90;0.80;;;23.50;43.20;;;;;;5034973;28;20197;-54
2021/08/29 02:22:12;;;;;;;1.10;0.70;;;23.50;43.10;;;;;;5036768;28;20208;-57
2021/08/29 02:24:39;;;;;;;0.80;0.80;;;23.50;43.20;;;;;;5040193;28;20201;-55
2021/08/29 02:27:05;;;;;;;1.00;0.80;;;23.50;43.20;;;;;;5039892;28;20225;-52
2021/08/29 02:29:32;;;;;;;0.90;0.90;;;23.50;43.20;;;;;;5048338;28;20219;-56
2021/08/29 02:31:58;;;;;;;1.13;1.05;;;23.50;43.10;;;;;;5032200;28;20201;-57
2021/08/29 02:34:24;;;;;;;1.17;0.90;;;23.50;43.20;;;;;;5048034;28;20198;-55
2021/08/29 02:36:51;;;;;;;0.88;0.88;;;23.50;43.20;;;;;;5041371;28;20229;-60
2021/08/29 02:39:17;;;;;;;0.95;0.90;;;23.50;43.10;;;;;;5032666;28;20209;-53
2021/08/29 02:41:44;;;;;;;1.52;0.80;;;23.50;43.20;;;;;;5036329;28;20209;-54
2021/08/29 02:44:10;;;;;;;1.65;1.00;;;23.50;43.20;;;;;;5033178;28;20198;-51
2021/08/29 02:46:37;;;;;;;1.60;0.88;;;23.50;43.10;;;;;;5034028;28;20225;-56
2021/08/29 02:49:05;;;;;;;1.23;1.17;;;23.50;43.20;;;;;;5036339;28;20235;-58
2021/08/29 02:51:31;;;;;;;0.80;0.80;;;23.50;43.20;;;;;;5033046;28;20202;-57
2021/08/29 02:53:57;;;;;;;0.73;0.73;;;23.50;43.20;;;;;;5027449;28;20214;-58
2021/08/29 02:56:24;;;;;;;0.90;0.90;;;23.50;43.20;;;;;;5037601;28;20222;-57
2021/08/29 02:58:50;;;;;;;0.73;0.73;;;23.50;43.20;;;;;;5040255;28;20449;-57
2021/08/29 03:01:17;;;;;;;1.00;0.90;;;23.50;43.20;;;;;;5040692;28;20202;-58
2021/08/29 03:03:44;;;;;;;0.80;0.80;;;23.50;43.20;;;;;;5032197;28;20216;-58
2021/08/29 03:06:10;;;;;;;0.95;0.95;;;23.50;43.90;;;;;;5038105;28;20218;-55
2021/08/29 03:08:37;;;;;;;1.10;1.00;;;23.50;43.20;;;;;;5045208;28;20638;-51
2021/08/29 03:11:03;;;;;;;0.90;0.90;;;23.50;43.20;;;;;;5045619;28;20206;-57
2021/08/29 03:13:30;;;;;;;3.50;1.25;;;23.50;43.20;;;;;;5032208;28;20202;-56
2021/08/29 03:15:56;;;;;;;0.70;0.70;;;23.50;43.20;;;;;;5041273;28;20217;-58
2021/08/29 03:18:23;;;;;;;1.05;0.98;;;23.50;43.20;;;;;;5049433;28;20204;-59
2021/08/29 03:20:49;;;;;;;0.93;0.93;;;23.50;43.20;;;;;;5044988;28;20190;-56
2021/08/29 03:23:16;;;;;;;0.80;0.80;;;23.50;43.20;;;;;;5030648;28;20210;-54
2021/08/29 03:25:42;;;;;;;1.08;0.90;;;23.50;43.20;;;;;;5040847;28;20228;-57
2021/08/29 03:28:09;;;;;;;1.48;1.20;;;23.50;43.20;;;;;;5033574;28;20206;-53
2021/08/29 03:30:35;;;;;;;1.60;1.05;;;23.50;43.20;;;;;;5047061;28;20252;-53
2021/08/29 03:33:02;;;;;;;0.95;0.93;;;23.50;43.20;;;;;;5030915;28;20565;-51
2021/08/29 03:35:28;;;;;;;1.80;1.02;;;23.50;43.20;;;;;;5031818;28;20252;-51
2021/08/29 03:37:54;;;;;;;0.80;0.80;;;23.50;43.20;;;;;;5035034;28;20293;-49
2021/08/29 03:40:21;;;;;;;0.85;0.85;;;23.50;43.20;;;;;;5037342;28;20281;-51
2021/08/29 03:42:47;;;;;;;0.90;0.90;;;23.50;43.30;;;;;;5036733;28;20205;-55
2021/08/29 03:45:14;;;;;;;1.20;1.10;;;23.50;43.20;;;;;;5040263;28;20246;-53
2021/08/29 03:47:40;;;;;;;0.88;0.80;;;23.50;43.30;;;;;;5027627;28;20217;-53
2021/08/29 03:50:07;;;;;;;0.75;0.75;;;23.50;43.30;;;;;;5026252;28;20238;-52
2021/08/29 03:52:33;;;;;;;1.20;1.00;;;23.50;43.30;;;;;;5031595;28;20202;-51
2021/08/29 03:54:59;;;;;;;0.70;0.70;;;23.50;43.30;;;;;;5036339;28;20213;-58
2021/08/29 03:57:26;;;;;;;0.80;0.80;;;23.50;43.30;;;;;;5049650;28;20202;-52
2021/08/29 03:59:52;;;;;;;0.80;0.80;;;23.50;43.20;;;;;;5043853;28;20198;-50
2021/08/29 04:02:19;;;;;;;1.27;0.80;;;23.50;43.30;;;;;;5041822;28;20206;-55
2021/08/29 04:04:46;;;;;;;0.70;0.70;;;23.50;43.30;;;;;;5035345;28;20735;-50
2021/08/29 04:07:12;;;;;;;0.80;0.80;;;23.50;43.30;;;;;;5035005;28;20558;-54
2021/08/29 04:09:38;;;;;;;1.38;0.80;;;23.50;43.30;;;;;;5051586;28;20705;-51
2021/08/29 04:12:05;;;;;;;1.00;0.90;;;23.50;43.20;;;;;;5039355;28;20293;-51
2021/08/29 04:14:32;;;;;;;0.93;0.93;;;23.50;43.30;;;;;;5044398;28;20206;-53
2021/08/29 04:16:58;;;;;;;0.85;0.85;;;23.50;43.30;;;;;;5038491;28;20236;-55
2021/08/29 04:19:24;;;;;;;0.70;0.70;;;23.50;43.30;;;;;;5052832;28;20194;-53
2021/08/29 04:21:51;;;;;;;1.20;0.90;;;23.50;43.20;;;;;;5045673;28;20234;-55
2021/08/29 04:24:17;;;;;;;0.70;0.70;;;23.50;43.30;;;;;;5034136;28;20198;-57
2021/08/29 04:26:44;;;;;;;1.15;0.80;;;23.50;43.30;;;;;;5042157;28;20225;-55
2021/08/29 04:29:10;;;;;;;3.92;1.40;;;23.50;43.20;;;;;;5054209;28;20218;-57
2021/08/29 04:31:37;;;;;;;1.02;1.00;;;23.50;43.30;;;;;;5051533;28;20212;-56
2021/08/29 04:34:03;;;;;;;0.98;0.90;;;23.50;43.50;;;;;;5034533;28;20217;-57
2021/08/29 04:36:29;;;;;;;1.15;0.90;;;23.50;43.50;;;;;;5034572;28;20219;-53
2021/08/29 04:38:56;;;;;;;0.80;0.80;;;23.50;43.60;;;;;;5043175;28;20200;-58
2021/08/29 04:41:22;;;;;;;0.80;0.70;;;23.50;43.60;;;;;;5025800;28;20202;-56
2021/08/29 04:43:49;;;;;;;1.13;0.90;;;23.50;43.60;;;;;;5033426;28;20228;-52
2021/08/29 04:46:15;;;;;;;1.33;0.93;;;23.50;43.60;;;;;;5048403;28;20232;-56
2021/08/29 04:48:42;;;;;;;2.83;0.80;;;23.50;43.60;;;;;;5043631;28;20202;-53
2021/08/29 04:51:08;;;;;;;0.90;0.90;;;23.50;43.60;;;;;;5041084;28;20206;-55
2021/08/29 04:53:35;;;;;;;1.13;0.80;;;23.50;43.60;;;;;;5032629;28;20285;-54
2021/08/29 04:56:01;;;;;;;0.77;0.77;;;23.50;43.60;;;;;;5035683;28;20226;-57
2021/08/29 04:58:28;;;;;;;0.90;0.90;;;23.50;43.60;;;;;;5036842;28;20201;-57
2021/08/29 05:00:54;;;;;;;0.70;0.70;;;23.50;43.60;;;;;;5037840;28;20207;-58
2021/08/29 05:03:20;;;;;;;0.88;0.88;;;23.50;43.60;;;;;;5035931;28;20201;-55
2021/08/29 05:05:47;;;;;;;0.82;0.80;;;23.50;43.60;;;;;;5037642;28;20228;-56
2021/08/29 05:08:13;;;;;;;1.65;0.80;;;23.50;43.60;;;;;;5042911;28;20198;-57
2021/08/29 05:10:40;;;;;;;1.25;1.00;;;23.50;43.60;;;;;;5052236;28;20226;-56
2021/08/29 05:13:06;;;;;;;1.83;0.90;;;23.50;43.60;;;;;;5033526;28;20203;-56
2021/08/29 05:15:33;;;;;;;0.70;0.70;;;23.50;43.60;;;;;;5032934;28;20313;-53
2021/08/29 05:17:59;;;;;;;0.80;0.80;;;23.50;43.60;;;;;;5033822;28;20213;-57
2021/08/29 05:20:25;;;;;;;0.88;0.88;;;23.50;43.50;;;;;;5033224;28;20198;-53
2021/08/29 05:22:52;;;;;;;0.60;0.60;;;23.50;43.50;;;;;;5052399;28;20208;-55
2021/08/29 05:25:18;;;;;;;0.88;0.88;;;23.50;43.50;;;;;;5040376;28;20221;-54
2021/08/29 05:27:45;;;;;;;0.80;0.80;;;23.50;43.50;;;;;;5039823;28;20202;-58
2021/08/29 05:30:11;;;;;;;0.85;0.85;;;23.50;43.60;;;;;;5033688;28;20230;-55
2021/08/29 05:32:38;;;;;;;1.38;0.90;;;23.50;43.70;;;;;;5034653;28;20211;-51
2021/08/29 05:35:04;;;;;;;0.93;0.88;;;23.50;43.60;;;;;;5032502;28;20230;-55
2021/08/29 05:37:31;;;;;;;1.60;0.93;;;23.50;43.60;;;;;;5032186;28;20216;-52
2021/08/29 05:39:57;;;;;;;1.10;0.90;;;23.50;43.70;;;;;;5032104;28;20214;-56
2021/08/29 05:42:24;;;;;;;0.80;0.80;;;23.50;43.60;;;;;;5031741;28;20202;-58
2021/08/29 05:44:50;;;;;;;3.03;1.00;;;23.50;43.70;;;;;;5032398;28;20214;-56
2021/08/29 05:47:18;;;;;;;0.88;0.88;;;23.50;43.60;;;;;;5033302;28;20289;-57
2021/08/29 05:49:44;;;;;;;1.50;1.00;;;23.50;43.60;;;;;;5032850;28;20230;-56
2021/08/29 05:52:11;;;;;;;2.78;1.25;;;23.50;43.60;;;;;;5038526;28;20538;-49
2021/08/29 05:54:37;;;;;;;0.98;0.80;;;23.50;43.60;;;;;;5036805;28;20654;-55
2021/08/29 05:57:04;;;;;;;1.63;0.80;;;23.50;43.60;;;;;;5032110;28;20214;-56
2021/08/29 05:59:30;;;;;;;0.70;0.70;;;23.50;43.60;;;;;;5032488;28;20214;-57
2021/08/29 06:01:56;;;;;;;2.40;0.90;;;23.50;43.60;;;;;;5033157;28;20202;-54
2021/08/29 06:04:23;;;;;;;0.80;0.80;;;23.50;43.60;;;;;;5032018;28;20194;-57
2021/08/29 06:06:49;;;;;;;0.80;0.80;;;23.50;43.60;;;;;;5028963;28;20199;-58
2021/08/29 06:09:16;;;;;;;1.15;0.90;;;23.50;43.60;;;;;;5032548;28;20198;-55
2021/08/29 06:11:42;;;;;;;0.70;0.70;;;23.50;43.60;;;;;;5038524;28;20204;-59
2021/08/29 06:14:09;;;;;;;0.90;0.90;;;23.50;43.60;;;;;;5052024;28;20197;-55
2021/08/29 06:16:35;;;;;;;0.95;0.90;;;23.50;43.60;;;;;;5032143;28;20232;-59
2021/08/29 06:19:01;;;;;;;0.70;0.70;;;23.50;43.60;;;;;;5043469;28;20299;-57
2021/08/29 06:21:28;;;;;;;1.10;1.00;;;23.50;43.60;;;;;;5036057;28;20213;-54
2021/08/29 06:23:54;;;;;;;0.75;0.75;;;23.40;43.60;;;;;;5031268;28;20207;-57
2021/08/29 06:26:21;;;;;;;1.42;1.00;;;23.50;43.60;;;;;;5036595;28;20222;-54
2021/08/29 06:28:47;;;;;;;1.27;0.90;;;23.40;43.60;;;;;;5031277;28;20293;-57
2021/08/29 06:31:14;;;;;;;0.90;0.90;;;23.40;43.60;;;;;;5037493;28;20827;-56
2021/08/29 06:33:40;;;;;;;0.80;0.80;;;23.40;43.60;;;;;;5033066;28;20672;-51
2021/08/29 06:36:07;;;;;;;1.02;1.02;;;23.50;43.60;;;;;;5038533;28;20655;-57
2021/08/29 06:38:33;;;;;;;0.80;0.80;;;23.40;43.60;;;;;;5035879;28;20591;-54
2021/08/29 06:40:59;;;;;;;1.30;1.00;;;23.40;43.60;;;;;;5031562;28;20554;-56
2021/08/29 06:43:26;;;;;;;0.90;0.90;;;23.50;43.60;;;;;;5035156;28;20689;-57
2021/08/29 06:45:52;;;;;;;0.75;0.75;;;23.40;43.60;;;;;;5046776;28;20218;-57
2021/08/29 06:48:19;;;;;;;0.70;0.70;;;23.40;43.60;;;;;;5033521;28;20658;-57
2021/08/29 06:50:45;;;;;;;1.10;1.05;;;23.50;43.60;;;;;;5044131;28;20235;-60
2021/08/29 06:53:12;;;;;;;0.80;0.80;;;23.40;43.60;;;;;;5032697;28;20650;-56
2021/08/29 06:55:38;;;;;;;1.55;0.80;;;23.40;43.60;;;;;;5019832;28;20229;-55
2021/08/29 06:58:04;;;;;;;0.80;0.80;;;23.50;43.60;;;;;;5025486;28;20654;-59
2021/08/29 07:00:31;;;;;;;0.80;0.80;;;23.50;43.60;;;;;;5032223;28;20559;-55
2021/08/29 07:02:57;;;;;;;1.05;0.95;;;23.50;43.60;;;;;;5032549;28;20655;-53
2021/08/29 07:05:25;;;;;;;0.85;0.80;;;23.50;43.60;;;;;;5043913;28;20213;-54
2021/08/29 07:07:51;;;;;;;1.10;1.00;;;23.50;43.60;;;;;;5033952;28;20612;-55
2021/08/29 07:10:18;;;;;;;0.82;0.80;;;23.50;43.60;;;;;;5033418;28;20694;-52
2021/08/29 07:12:44;;;;;;;1.58;0.93;;;23.50;43.60;;;;;;5024378;28;20701;-53
2021/08/29 07:15:10;;;;;;;1.85;1.58;;;23.50;43.60;;;;;;5026659;28;20219;-55
2021/08/29 07:17:37;;;;;;;1.98;1.00;;;23.40;44.10;;;;;;5025376;28;20222;-50
2021/08/29 07:20:03;;;;;;;1.50;1.30;;;23.50;44.20;;;;;;5023448;28;20211;-49
2021/08/29 07:22:30;;;;;;;1.52;1.20;;;23.40;44.20;;;;;;5023939;28;20482;-52
2021/08/29 07:24:56;;;;;;;1.77;1.27;;;23.40;44.30;;;;;;5024882;28;20222;-56
2021/08/29 07:27:23;;;;;;;2.22;1.33;;;23.40;44.30;;;;;;5023067;28;20229;-52
2021/08/29 07:29:49;;;;;;;1.65;1.40;;;23.40;44.40;;;;;;5022884;28;20252;-52
2021/08/29 07:32:16;;;;;;;2.35;1.30;;;23.40;44.20;;;;;;5021592;28;20264;-49
2021/08/29 07:34:42;;;;;;;2.08;1.10;;;23.40;44.10;;;;;;5017118;28;20219;-49
2021/08/29 07:37:08;;;;;;;1.95;1.52;;;23.40;44.00;;;;;;5023720;28;20220;-53
2021/08/29 07:39:35;;;;;;;1.63;1.23;;;23.40;44.00;;;;;;5029337;28;20207;-50
2021/08/29 07:42:01;;;;;;;1.35;1.25;;;23.40;43.90;;;;;;5035174;28;20284;-49
2021/08/29 07:44:28;;;;;;;1.27;1.17;;;23.30;43.70;;;;;;5030983;28;20222;-48
2021/08/29 07:46:54;;;;;;;1.65;1.55;;;23.40;43.70;;;;;;5030926;28;20205;-51
2021/08/29 07:49:21;;;;;;;1.65;1.20;;;23.30;43.60;;;;;;5029274;28;20201;-50
2021/08/29 07:51:47;;;;;;;1.70;1.13;;;23.30;43.60;;;;;;5036144;28;20233;-49
2021/08/29 07:54:13;;;;;;;1.92;1.50;;;23.30;43.50;;;;;;5029824;28;20223;-50
2021/08/29 07:56:40;;;;;;;7.32;1.20;;;23.40;43.70;;;;;;5014191;28;20205;-49
2021/08/29 07:59:06;;;;;;;2.15;1.20;;;23.40;43.60;;;;;;5028585;28;20213;-57
2021/08/29 08:01:33;;;;;;;4.40;1.30;;;23.50;43.60;;;;;;5023255;28;20198;-52
2021/08/29 08:03:59;;;;;;;4.28;1.48;;;23.50;43.60;;;;;;5022473;28;20242;-46
2021/08/29 08:06:26;;;;;;;3.95;1.67;;;23.50;43.80;;;;;;5023312;28;20195;-46
2021/08/29 08:08:52;;;;;;;5.05;2.20;;;23.50;44.30;;;;;;5022958;28;20205;-53
2021/08/29 08:11:19;;;;;;;8.30;1.88;;;23.50;45.70;;;;;;5018959;28;20244;-55
2021/08/29 08:13:45;;;;;;;9.95;2.05;;;23.50;45.70;;;;;;5022165;28;20215;-53
2021/08/29 08:16:11;;;;;;;6.97;1.88;;;23.50;47.30;;;;;;5029333;28;20233;-52
2021/08/29 08:18:38;;;;;;;5.85;2.00;;;23.40;47.50;;;;;;5028700;28;20224;-49
2021/08/29 08:21:04;;;;;;;5.15;1.70;;;23.40;47.20;;;;;;5030587;28;20234;-47
2021/08/29 08:23:31;;;;;;;6.10;1.85;;;23.40;47.10;;;;;;5025291;28;20195;-51
2021/08/29 08:25:57;;;;;;;8.25;2.33;;;23.40;47.10;;;;;;5029478;28;20222;-50
2021/08/29 08:28:24;;;;;;;4.88;2.03;;;23.40;47.70;;;;;;5026617;28;20225;-55
2021/08/29 08:30:50;;;;;;;5.90;2.67;;;23.40;47.90;;;;;;5017041;28;20309;-51
2021/08/29 08:33:17;;;;;;;3.40;1.98;;;22.70;44.50;;;;;;5027441;28;20211;-53
2021/08/29 08:35:43;;;;;;;2.47;1.95;;;22.00;44.90;;;;;;5028876;28;20225;-51
2021/08/29 08:38:09;;;;;;;2.60;2.30;;;20.60;47.20;;;;;;5027708;28;20211;-50
2021/08/29 08:40:36;;;;;;;3.17;2.22;;;21.40;46.70;;;;;;5029505;28;20213;-49
2021/08/29 08:43:03;;;;;;;2.95;1.70;;;22.00;46.30;;;;;;5028760;28;20203;-55
2021/08/29 08:45:29;;;;;;;2.95;1.52;;;22.40;47.10;;;;;;5028827;28;20310;-49
2021/08/29 08:47:56;;;;;;;1.60;1.48;;;22.60;47.50;;;;;;5030074;28;20211;-53
2021/08/29 08:50:22;;;;;;;1.60;1.50;;;22.80;47.90;;;;;;5024831;28;20222;-54
2021/08/29 08:52:48;;;;;;;3.47;1.88;;;22.80;47.90;;;;;;5032662;28;20214;-53
2021/08/29 08:55:15;;;;;;;4.13;1.50;;;22.90;48.10;;;;;;5032041;28;20249;-51
2021/08/29 08:57:41;;;;;;;2.28;1.55;;;23.00;47.80;;;;;;5032930;28;20280;-55
2021/08/29 09:00:08;;;;;;;1.48;1.35;;;23.00;48.10;;;;;;5031406;28;20581;-48
2021/08/29 09:02:34;;;;;;;1.90;1.30;;;23.00;47.80;;;;;;5033259;28;20289;-56
2021/08/29 09:05:01;;;;;;;3.03;1.77;;;23.10;47.80;;;;;;5021699;28;20222;-53
2021/08/29 09:07:27;;;;;;;3.15;1.52;;;23.10;48.00;;;;;;5023851;28;20199;-55
2021/08/29 09:09:54;;;;;;;3.42;1.25;;;23.10;47.90;;;;;;5028182;28;20201;-53
2021/08/29 09:12:20;;;;;;;3.05;1.42;;;23.10;47.70;;;;;;5025093;28;20207;-52
2021/08/29 09:14:46;;;;;;;1.95;1.40;;;23.10;47.60;;;;;;5029722;28;20235;-55
2021/08/29 09:17:13;;;;;;;2.78;1.52;;;23.10;47.50;;;;;;5032217;28;20634;-52
2021/08/29 09:19:39;;;;;;;2.47;1.50;;;23.20;47.10;;;;;;5030391;28;20223;-52
2021/08/29 09:22:06;;;;;;;1.50;1.20;;;23.20;47.00;;;;;;5032985;28;20207;-50
2021/08/29 09:24:32;;;;;;;2.38;1.20;;;23.20;47.00;;;;;;5028339;28;20225;-49
2021/08/29 09:26:59;;;;;;;3.80;1.35;;;23.30;46.60;;;;;;5027160;28;20286;-52
2021/08/29 09:29:25;;;;;;;2.15;1.35;;;23.30;46.40;;;;;;5031999;28;20212;-48
2021/08/29 09:31:51;;;;;;;1.33;1.23;;;23.30;46.60;;;;;;5032257;28;20245;-54
2021/08/29 09:34:18;;;;;;;1.42;1.33;;;23.30;47.00;;;;;;5031757;28;20229;-52
2021/08/29 09:36:44;;;;;;;1.77;1.40;;;23.20;47.00;;;;;;5026669;28;20209;-54
2021/08/29 09:39:11;;;;;;;3.25;2.20;;;23.20;46.60;;;;;;5027540;28;20206;-50
2021/08/29 09:41:38;;;;;;;1.75;1.40;;;23.20;46.90;;;;;;5032030;28;20210;-50
2021/08/29 09:44:04;;;;;;;2.30;1.50;;;23.30;46.40;;;;;;5029966;28;20706;-47
2021/08/29 09:46:31;;;;;;;1.70;1.38;;;23.30;46.40;;;;;;5030106;28;20643;-45
2021/08/29 09:48:57;;;;;;;1.50;1.40;;;23.30;46.70;;;;;;5027016;28;20551;-51
2021/08/29 09:51:24;;;;;;;2.00;1.80;;;23.30;46.80;;;;;;5019007;28;21500;-52
2021/08/29 09:53:51;;;;;;;2.10;1.77;;;23.30;46.00;;;;;;5030599;28;20225;-46
2021/08/29 09:56:17;;;;;;;3.85;2.17;;;23.20;45.30;;;;;;5028210;28;20210;-51
2021/08/29 09:58:44;;;;;;;2.95;2.33;;;23.20;44.50;;;;;;5031472;28;20203;-52
2021/08/29 10:01:11;;;;;;;2.15;2.03;;;23.10;43.60;;;;;;5030763;28;20203;-50
2021/08/29 10:03:38;;;;;;;2.78;2.35;;;23.00;43.10;;;;;;5012871;28;20250;-49
2021/08/29 10:06:04;;;;;;;3.40;1.90;;;23.00;43.30;;;;;;5017316;28;20199;-49
2021/08/29 10:08:30;;;;;;;3.17;2.03;;;23.00;43.40;;;;;;5047678;28;20288;-52
2021/08/29 10:10:57;;;;;;;1.85;1.75;;;23.00;43.50;;;;;;5031010;28;20236;-49
2021/08/29 10:13:24;;;;;;;5.18;1.70;;;23.00;43.90;;;;;;5043143;28;20262;-46
2021/08/29 10:15:50;;;;;;;2.03;1.83;;;23.10;44.40;;;;;;5048687;28;20277;-49
2021/08/29 10:18:17;;;;;;;1.92;1.80;;;23.10;44.40;;;;;;5031719;28;20210;-54
2021/08/29 10:20:43;;;;;;;2.45;1.63;;;23.20;44.40;;;;;;5030505;28;20206;-48
2021/08/29 10:23:10;;;;;;;2.55;1.42;;;23.20;44.50;;;;;;5045992;28;20206;-48
2021/08/29 10:25:37;;;;;;;2.05;1.80;;;23.20;44.50;;;;;;5044533;28;20206;-49
2021/08/29 10:28:03;;;;;;;2.25;1.70;;;23.20;44.50;;;;;;5026105;28;20225;-49
2021/08/29 10:30:30;;;;;;;2.35;1.63;;;23.30;44.70;;;;;;5026499;28;20205;-52
2021/08/29 10:32:56;;;;;;;1.85;1.70;;;23.40;44.10;;;;;;5025894;28;20207;-52
2021/08/29 10:35:22;;;;;;;2.35;1.60;;;23.30;44.60;;;;;;5024747;28;20214;-50
2021/08/29 10:37:49;;;;;;;1.70;1.60;;;23.40;44.60;;;;;;5021360;28;20213;-54
2021/08/29 10:40:15;;;;;;;1.40;1.20;;;23.40;44.40;;;;;;5023421;28;20360;-54
2021/08/29 10:42:42;;;;;;;2.33;1.45;;;23.30;44.30;;;;;;5026854;28;20213;-53
2021/08/29 10:45:08;;;;;;;2.92;1.48;;;23.30;44.70;;;;;;5028373;28;20312;-63
2021/08/29 10:47:35;;;;;;;1.60;1.50;;;23.40;44.80;;;;;;5032075;28;20222;-47
2021/08/29 10:50:01;;;;;;;1.83;1.63;;;23.40;45.40;;;;;;5042400;28;20274;-47
2021/08/29 10:52:28;;;;;;;3.75;1.30;;;23.40;45.80;;;;;;5034202;28;20332;-45
2021/08/29 10:54:54;;;;;;;1.50;1.40;;;23.30;46.00;;;;;;5031773;28;20211;-42
2021/08/29 10:57:21;;;;;;;1.65;1.55;;;23.30;46.20;;;;;;5030546;28;20198;-50
2021/08/29 10:59:47;;;;;;;2.53;1.65;;;23.30;46.10;;;;;;5035967;28;20196;-46
2021/08/29 11:02:14;;;;;;;1.88;1.40;;;23.40;46.20;;;;;;5043268;28;20207;-42
2021/08/29 11:04:41;;;;;;;1.83;1.60;;;23.30;46.20;;;;;;5031905;28;20301;-46
2021/08/29 11:07:07;;;;;;;5.82;2.58;;;23.40;45.70;;;;;;5030776;28;20235;-47
2021/08/29 11:09:34;;;;;;;4.35;3.15;;;23.50;45.40;;;;;;5050253;28;20209;-50
2021/08/29 11:12:00;;;;;;;8.25;5.20;;;23.50;45.00;;;;;;5034114;28;20768;-50
2021/08/29 11:14:27;;;;;;;9.70;5.30;;;23.50;44.90;;;;;;5031194;28;20597;-47
2021/08/29 11:16:53;;;;;;;10.20;5.45;;;23.50;44.70;;;;;;5030785;28;20281;-47
2021/08/29 11:19:20;;;;;;;10.20;6.35;;;23.50;44.60;;;;;;5033957;28;20199;-47
2021/08/29 11:21:46;;;;;;;10.10;6.32;;;23.60;44.80;;;;;;5030286;28;20597;-48
2021/08/29 11:24:12;;;;;;;12.30;6.90;;;23.60;44.80;;;;;;5030763;28;20592;-47
2021/08/29 11:26:39;;;;;;;11.52;6.63;;;23.60;44.70;;;;;;5030874;28;20689;-47
2021/08/29 11:29:05;;;;;;;12.40;7.07;;;23.60;44.70;;;;;;5031001;28;20202;-46
2021/08/29 11:31:32;;;;;;;15.07;7.88;;;23.60;44.90;;;;;;5039677;28;20693;-49
2021/08/29 11:33:58;;;;;;;14.25;7.53;;;23.60;45.10;;;;;;5035627;28;20240;-52
2021/08/29 11:36:25;;;;;;;14.05;7.97;;;23.60;45.00;;;;;;5016595;28;21497;-46
2021/08/29 11:38:51;;;;;;;15.80;7.75;;;23.60;45.60;;;;;;5021933;28;20194;-46
2021/08/29 11:41:17;;;;;;;12.70;7.60;;;23.70;46.40;;;;;;5019709;28;20209;-47
2021/08/29 11:43:44;;;;;;;14.65;8.35;;;23.80;46.80;;;;;;5021998;28;20222;-46
2021/08/29 11:46:11;;;;;;;13.30;8.20;;;23.80;47.50;;;;;;5021126;28;20261;-45
2021/08/29 11:48:38;;;;;;;16.55;8.00;;;23.80;47.50;;;;;;5024317;28;20222;-46
2021/08/29 11:51:04;;;;;;;13.50;7.45;;;23.80;48.20;;;;;;5023921;28;20568;-45
2021/08/29 11:53:31;;;;;;;13.35;8.40;;;23.80;48.40;;;;;;5022386;28;20222;-46
2021/08/29 11:55:57;;;;;;;14.23;7.68;;;23.80;48.60;;;;;;5022783;28;20217;-44
2021/08/29 11:58:24;;;;;;;13.88;8.35;;;23.80;48.90;;;;;;5023183;28;20203;-45
2021/08/29 12:00:50;;;;;;;14.52;7.93;;;23.80;50.00;;;;;;5023267;28;20195;-46
2021/08/29 12:03:17;;;;;;;16.13;8.95;;;23.80;49.40;;;;;;5024902;28;20601;-48
2021/08/29 12:05:43;;;;;;;13.95;8.63;;;23.90;49.20;;;;;;5025312;28;20558;-47
2021/08/29 12:08:10;;;;;;;12.27;8.30;;;23.80;49.90;;;;;;5022574;28;20662;-48
2021/08/29 12:10:36;;;;;;;14.93;8.43;;;23.90;49.70;;;;;;5022768;28;20671;-44
2021/08/29 12:13:02;;;;;;;14.05;7.93;;;23.80;49.50;;;;;;5023870;28;20717;-44
2021/08/29 12:15:29;;;;;;;14.60;8.68;;;23.80;49.70;;;;;;5020746;28;20218;-46
2021/08/29 12:17:57;;;;;;;14.10;8.38;;;23.80;49.60;;;;;;5021596;28;20502;-47
2021/08/29 12:20:24;;;;;;;12.75;9.00;;;23.80;49.40;;;;;;5018929;28;20203;-45
2021/08/29 12:22:50;;;;;;;14.88;8.68;;;23.80;50.10;;;;;;5019457;28;20726;-47
2021/08/29 12:25:16;;;;;;;12.00;8.23;;;23.80;49.70;;;;;;5017271;28;21104;-48
2021/08/29 12:27:43;;;;;;;17.15;8.52;;;23.80;50.30;;;;;;5018334;28;20645;-48
2021/08/29 12:30:10;;;;;;;15.93;8.93;;;23.90;50.90;;;;;;5020871;28;20570;-49
2021/08/29 12:32:36;;;;;;;14.13;9.10;;;23.90;50.50;;;;;;5020622;28;20246;-45
2021/08/29 12:35:03;;;;;;;19.27;9.85;;;23.90;50.60;;;;;;5021892;28;20213;-48
2021/08/29 12:37:29;;;;;;;65.40;44.67;;;23.90;50.80;;;;;;5018571;28;20222;-49
2021/08/29 12:39:56;;;;;;;108.40;79.13;;;23.90;51.00;;;;;;5020844;28;20260;-49